createdAt,value
2023-05-02T00:00:04.051Z,96740.91
2023-05-02T00:02:34.006Z,96745.13
2023-05-02T00:05:01.664Z,96740.09
2023-05-02T00:07:29.333Z,96740.28
2023-05-02T00:09:56.948Z,96742.25
2023-05-02T00:12:24.498Z,96736.88
2023-05-02T00:14:52.215Z,96733.41
2023-05-02T00:17:20.535Z,96735.13
2023-05-02T00:19:49.505Z,96733.44
2023-05-02T00:22:17.055Z,96731.72
2023-05-02T00:24:44.710Z,96729.63
2023-05-02T00:27:12.211Z,96729.47
2023-05-02T00:29:39.767Z,96726.50
2023-05-02T00:32:07.327Z,96725.84
2023-05-02T00:34:34.962Z,96730.81
2023-05-02T00:37:03.846Z,96731.50
2023-05-02T00:39:31.380Z,96728.63
2023-05-02T00:41:59.223Z,96732.56
2023-05-02T00:44:26.904Z,96728.34
2023-05-02T00:46:55.338Z,96729.78
2023-05-02T00:49:23.394Z,96724.22
2023-05-02T00:51:50.974Z,96728.25
2023-05-02T00:54:19.902Z,96728.25
2023-05-02T00:56:47.824Z,96732.69
2023-05-02T00:59:16.885Z,96732.31
2023-05-02T01:01:58.319Z,96738.34
2023-05-02T01:04:36.968Z,96735.91
2023-05-02T01:07:18.997Z,96732.03
2023-05-02T01:09:58.913Z,96750.28
2023-05-02T01:12:29.902Z,96750.41
2023-05-02T01:14:59.626Z,96753.63
2023-05-02T01:17:29.913Z,96767.22
2023-05-02T01:20:00.538Z,96765.13
2023-05-02T01:22:30.264Z,96768.44
2023-05-02T01:25:08.420Z,96761.75
2023-05-02T01:27:44.566Z,96767.75
2023-05-02T01:30:16.022Z,96767.09
2023-05-02T01:32:46.806Z,96763.53
2023-05-02T01:35:17.016Z,96765.88
2023-05-02T01:37:46.339Z,96768.00
2023-05-02T01:40:18.153Z,96766.38
2023-05-02T01:42:48.096Z,96772.41
2023-05-02T01:45:17.614Z,96769.00
2023-05-02T01:47:46.695Z,96768.81
2023-05-02T01:50:18.428Z,96772.88
2023-05-02T01:52:48.125Z,96774.84
2023-05-02T01:55:18.543Z,96771.50
2023-05-02T01:57:48.596Z,96777.06
2023-05-02T02:00:19.630Z,96776.22
2023-05-02T02:02:48.628Z,96776.13
2023-05-02T02:05:19.027Z,96774.56
2023-05-02T02:07:47.021Z,96775.06
2023-05-02T02:10:14.647Z,96774.06
2023-05-02T02:12:44.651Z,96785.84
2023-05-02T02:15:20.741Z,96775.63
2023-05-02T02:17:53.453Z,96786.28
2023-05-02T02:20:21.602Z,96787.78
2023-05-02T02:22:50.100Z,96788.97
2023-05-02T02:25:18.493Z,96793.53
2023-05-02T02:27:46.051Z,96786.50
2023-05-02T02:30:13.653Z,96797.91
2023-05-02T02:32:42.554Z,96799.63
2023-05-02T02:35:11.536Z,96791.94
2023-05-02T02:37:43.167Z,96793.91
2023-05-02T02:40:17.733Z,96793.66
2023-05-02T02:42:52.988Z,96800.88
2023-05-02T02:45:34.931Z,96801.88
2023-05-02T02:48:18.115Z,96801.56
2023-05-02T02:50:55.999Z,96811.84
2023-05-02T02:53:28.581Z,96813.78
2023-05-02T02:56:01.441Z,96817.53
2023-05-02T02:58:40.611Z,96812.19
2023-05-02T03:01:15.966Z,96814.97
2023-05-02T03:03:47.297Z,96821.31
2023-05-02T03:06:15.387Z,96820.03
2023-05-02T03:08:44.075Z,96817.22
2023-05-02T03:11:12.136Z,96819.22
2023-05-02T03:13:39.874Z,96826.84
2023-05-02T03:16:30.806Z,96823.59
2023-05-02T03:18:59.695Z,96823.13
2023-05-02T03:21:27.323Z,96828.66
2023-05-02T03:23:54.855Z,96833.84
2023-05-02T03:26:22.368Z,96841.66
2023-05-02T03:28:51.362Z,96833.47
2023-05-02T03:31:18.954Z,96843.88
2023-05-02T03:33:46.531Z,96844.84
2023-05-02T03:36:16.210Z,96849.75
2023-05-02T03:38:43.774Z,96842.28
2023-05-02T03:41:11.357Z,96847.00
2023-05-02T03:43:38.921Z,96851.41
2023-05-02T03:46:08.194Z,96855.94
2023-05-02T03:48:36.584Z,96864.72
2023-05-02T03:51:06.165Z,96868.97
2023-05-02T03:53:35.029Z,96868.31
2023-05-02T03:56:02.652Z,96869.75
2023-05-02T03:58:30.277Z,96870.72
2023-05-02T04:00:57.769Z,96871.50
2023-05-02T04:03:27.170Z,96872.00
2023-05-02T04:05:56.092Z,96888.41
2023-05-02T04:08:23.636Z,96887.75
2023-05-02T04:10:53.149Z,96887.47
2023-05-02T04:13:20.797Z,96889.44
2023-05-02T04:15:48.440Z,96894.94
2023-05-02T04:18:16.625Z,96897.22
2023-05-02T04:20:45.320Z,96901.59
2023-05-02T04:23:13.291Z,96902.72
2023-05-02T04:25:40.950Z,96909.22
2023-05-02T04:28:09.917Z,96914.38
2023-05-02T04:30:37.725Z,96915.03
2023-05-02T04:33:05.456Z,96916.97
2023-05-02T04:35:33.129Z,96920.50
2023-05-02T04:38:01.050Z,96923.59
2023-05-02T04:40:28.806Z,96922.16
2023-05-02T04:42:56.378Z,96924.09
2023-05-02T04:45:26.762Z,96936.47
2023-05-02T04:47:54.383Z,96925.91
2023-05-02T04:50:22.353Z,96931.41
2023-05-02T04:52:50.638Z,96934.78
2023-05-02T04:55:18.865Z,96937.03
2023-05-02T04:57:46.511Z,96941.22
2023-05-02T05:00:15.566Z,96946.38
2023-05-02T05:02:45.626Z,96939.00
2023-05-02T05:05:13.305Z,96947.97
2023-05-02T05:07:41.073Z,96944.53
2023-05-02T05:10:11.286Z,96951.56
2023-05-02T05:12:38.986Z,96947.31
2023-05-02T05:15:07.218Z,96948.31
2023-05-02T05:17:34.897Z,96960.19
2023-05-02T05:20:04.256Z,96961.00
2023-05-02T05:22:31.992Z,96955.78
2023-05-02T05:25:00.004Z,96963.78
2023-05-02T05:27:28.798Z,96963.78
2023-05-02T05:29:56.440Z,96957.75
2023-05-02T05:32:24.256Z,96960.53
2023-05-02T05:34:52.996Z,96961.34
2023-05-02T05:37:22.528Z,96968.19
2023-05-02T05:39:50.226Z,96964.88
2023-05-02T05:42:17.943Z,96976.25
2023-05-02T05:44:45.637Z,96980.50
2023-05-02T05:47:13.848Z,96978.34
2023-05-02T05:49:41.560Z,96978.81
2023-05-02T05:52:09.886Z,96983.53
2023-05-02T05:54:38.998Z,96989.66
2023-05-02T05:57:06.970Z,96980.97
2023-05-02T05:59:36.441Z,96997.19
2023-05-02T06:02:04.555Z,96983.47
2023-05-02T06:04:32.356Z,96992.56
2023-05-02T06:07:00.224Z,96990.59
2023-05-02T06:09:27.996Z,96992.69
2023-05-02T06:11:56.975Z,96993.63
2023-05-02T06:14:24.813Z,97004.78
2023-05-02T06:16:52.381Z,96997.59
2023-05-02T06:19:20.048Z,97007.06
2023-05-02T06:21:50.590Z,97007.53
2023-05-02T06:24:18.250Z,97016.97
2023-05-02T06:26:46.314Z,97026.16
2023-05-02T06:29:15.564Z,97037.75
2023-05-02T06:31:43.351Z,97037.75
2023-05-02T06:34:11.059Z,97043.00
2023-05-02T06:36:38.671Z,97043.00
2023-05-02T06:39:06.498Z,97051.09
2023-05-02T06:41:34.127Z,97052.22
2023-05-02T06:44:01.709Z,97059.88
2023-05-02T06:46:31.871Z,97061.78
2023-05-02T06:48:59.592Z,97058.03
2023-05-02T06:51:27.704Z,97062.41
2023-05-02T06:53:55.385Z,97065.22
2023-05-02T06:56:23.004Z,97067.34
2023-05-02T06:58:51.016Z,97066.56
2023-05-02T07:01:18.942Z,97078.97
2023-05-02T07:03:48.810Z,97080.59
2023-05-02T07:06:16.672Z,97080.78
2023-05-02T07:08:44.372Z,97082.38
2023-05-02T07:11:12.021Z,97086.66
2023-05-02T07:13:39.665Z,97090.88
2023-05-02T07:16:08.600Z,97089.06
2023-05-02T07:18:36.529Z,97092.47
2023-05-02T07:21:05.838Z,97095.09
2023-05-02T07:23:33.440Z,97092.47
2023-05-02T07:26:01.097Z,97094.13
2023-05-02T07:28:28.746Z,97084.94
2023-05-02T07:30:56.604Z,97099.28
2023-05-02T07:33:24.434Z,97094.69
2023-05-02T07:35:52.473Z,97094.50
2023-05-02T07:38:21.545Z,97101.66
2023-05-02T07:40:49.236Z,97098.34
2023-05-02T07:43:16.995Z,97098.81
2023-05-02T07:45:44.803Z,97106.28
2023-05-02T07:48:12.696Z,97105.91
2023-05-02T07:50:40.414Z,97109.38
2023-05-02T07:53:08.151Z,97102.34
2023-05-02T07:55:37.143Z,97109.16
2023-05-02T07:58:04.887Z,97105.59
2023-05-02T08:00:32.548Z,97106.03
2023-05-02T08:03:00.321Z,97107.50
2023-05-02T08:05:28.059Z,97110.41
2023-05-02T08:07:55.609Z,97111.06
2023-05-02T08:10:24.276Z,97115.91
2023-05-02T08:12:53.164Z,97119.81
2023-05-02T08:15:20.858Z,97116.84
2023-05-02T08:17:48.499Z,97110.88
2023-05-02T08:20:16.473Z,97123.63
2023-05-02T08:22:44.079Z,97119.03
2023-05-02T08:25:11.614Z,97129.13
2023-05-02T08:27:39.193Z,97120.94
2023-05-02T08:30:09.548Z,97124.16
2023-05-02T08:32:38.297Z,97127.59
2023-05-02T08:35:06.833Z,97128.22
2023-05-02T08:37:34.581Z,97128.66
2023-05-02T08:40:02.498Z,97136.81
2023-05-02T08:42:34.083Z,97137.53
2023-05-02T08:45:02.216Z,97145.66
2023-05-02T08:47:32.787Z,97150.97
2023-05-02T08:50:01.595Z,97142.41
2023-05-02T08:52:30.502Z,97143.94
2023-05-02T08:54:58.992Z,97146.09
2023-05-02T08:57:27.378Z,97144.97
2023-05-02T08:59:54.997Z,97150.69
2023-05-02T09:02:37.503Z,97146.06
2023-05-02T09:05:08.906Z,97154.19
2023-05-02T09:07:46.155Z,97161.47
2023-05-02T09:10:14.067Z,97157.88
2023-05-02T09:12:41.744Z,97155.25
2023-05-02T09:15:13.839Z,97154.88
2023-05-02T09:17:47.229Z,97150.91
2023-05-02T09:20:16.251Z,97160.66
2023-05-02T09:22:50.073Z,97156.94
2023-05-02T09:25:18.129Z,97156.47
2023-05-02T09:27:53.339Z,97155.78
2023-05-02T09:30:23.218Z,97157.50
2023-05-02T09:32:55.440Z,97152.31
2023-05-02T09:35:26.399Z,97155.56
2023-05-02T09:37:55.243Z,97154.75
2023-05-02T09:40:24.306Z,97157.97
2023-05-02T09:42:52.364Z,97160.06
2023-05-02T09:45:24.099Z,97170.59
2023-05-02T09:47:54.300Z,97169.19
2023-05-02T09:50:35.679Z,97175.34
2023-05-02T09:53:04.953Z,97167.88
2023-05-02T09:55:33.052Z,97171.19
2023-05-02T09:58:01.510Z,97168.06
2023-05-02T10:00:43.226Z,97161.75
2023-05-02T10:03:16.541Z,97168.84
2023-05-02T10:05:45.754Z,97168.13
2023-05-02T10:08:14.563Z,97159.75
2023-05-02T10:10:51.199Z,97157.50
2023-05-02T10:13:22.289Z,97160.97
2023-05-02T10:15:55.071Z,97164.59
2023-05-02T10:18:29.464Z,97162.16
2023-05-02T10:20:59.600Z,97163.66
2023-05-02T10:23:29.047Z,97164.06
2023-05-02T10:26:00.017Z,97161.25
2023-05-02T10:28:28.830Z,97172.59
2023-05-02T10:30:57.110Z,97170.56
2023-05-02T10:33:26.754Z,97164.31
2023-05-02T10:35:54.488Z,97162.69
2023-05-02T10:38:24.619Z,97155.22
2023-05-02T10:40:57.585Z,97160.06
2023-05-02T10:43:27.823Z,97153.66
2023-05-02T10:45:55.996Z,97157.09
2023-05-02T10:48:27.038Z,97148.19
2023-05-02T10:50:56.010Z,97160.75
2023-05-02T10:53:26.074Z,97131.59
2023-05-02T10:56:13.312Z,97136.03
2023-05-02T10:58:41.507Z,97142.72
2023-05-02T11:01:36.653Z,97140.06
2023-05-02T11:04:07.198Z,97139.66
2023-05-02T11:06:36.373Z,97135.59
2023-05-02T11:09:34.085Z,97128.25
2023-05-02T11:12:04.668Z,97134.28
2023-05-02T11:14:50.053Z,97129.44
2023-05-02T11:17:18.999Z,97121.75
2023-05-02T11:20:29.169Z,97126.41
2023-05-02T11:23:16.869Z,97119.75
2023-05-02T11:25:46.456Z,97117.72
2023-05-02T11:28:42.089Z,97127.88
2023-05-02T11:31:10.802Z,97130.09
2023-05-02T11:33:38.404Z,97133.94
2023-05-02T11:36:06.451Z,97126.22
2023-05-02T11:38:39.559Z,97128.63
2023-05-02T11:41:07.228Z,97117.63
2023-05-02T11:43:34.796Z,97116.78
2023-05-02T11:46:05.314Z,97119.16
2023-05-02T11:48:33.257Z,97112.81
2023-05-02T11:51:05.036Z,97119.47
2023-05-02T11:53:33.367Z,97117.38
2023-05-02T11:56:04.730Z,97121.00
2023-05-02T11:58:34.175Z,97112.84
2023-05-02T12:01:14.122Z,97114.78
2023-05-02T12:03:42.006Z,97115.94
2023-05-02T12:06:12.238Z,97112.47
2023-05-02T12:08:41.456Z,97111.59
2023-05-02T12:11:10.936Z,97110.50
2023-05-02T12:13:47.217Z,97120.22
2023-05-02T12:16:15.386Z,97122.63
2023-05-02T12:18:43.769Z,97131.19
2023-05-02T12:21:11.606Z,97126.63
2023-05-02T12:23:42.297Z,97126.47
2023-05-02T12:26:25.280Z,97131.69
2023-05-02T12:28:54.828Z,97121.47
2023-05-02T12:31:22.919Z,97121.75
2023-05-02T12:33:52.435Z,97122.28
2023-05-02T12:36:20.567Z,97126.84
2023-05-02T12:38:53.123Z,97121.28
2023-05-02T12:41:32.496Z,97121.00
2023-05-02T12:44:01.035Z,97123.38
2023-05-02T12:46:29.385Z,97122.03
2023-05-02T12:49:03.926Z,97109.56
2023-05-02T12:51:33.043Z,97119.88
2023-05-02T12:54:00.932Z,97125.16
2023-05-02T12:56:32.535Z,97118.25
2023-05-02T12:59:01.397Z,97123.44
2023-05-02T13:01:29.448Z,97117.53
2023-05-02T13:03:57.074Z,97129.03
2023-05-02T13:06:24.768Z,97128.22
2023-05-02T13:08:52.325Z,97128.22
2023-05-02T13:11:20.630Z,97126.59
2023-05-02T13:13:49.560Z,97127.63
2023-05-02T13:16:17.222Z,97129.47
2023-05-02T13:18:46.427Z,97140.47
2023-05-02T13:21:16.118Z,97143.88
2023-05-02T13:23:44.271Z,97157.84
2023-05-02T13:26:12.406Z,97163.41
2023-05-02T13:28:40.007Z,97174.22
2023-05-02T13:31:09.037Z,97173.97
2023-05-02T13:33:36.784Z,97168.88
2023-05-02T13:36:04.707Z,97177.19
2023-05-02T13:38:32.670Z,97184.19
2023-05-02T13:41:00.247Z,97189.06
2023-05-02T13:43:28.055Z,97193.75
2023-05-02T13:45:55.789Z,97195.16
2023-05-02T13:48:25.300Z,97195.34
2023-05-02T13:50:52.941Z,97185.00
2023-05-02T13:53:20.573Z,97192.88
2023-05-02T13:55:48.362Z,97187.59
2023-05-02T13:58:16.080Z,97192.66
2023-05-02T14:00:43.660Z,97190.63
2023-05-02T14:03:12.166Z,97189.66
2023-05-02T14:35:47.265Z,97178.16
2023-05-02T14:42:48.624Z,97168.03
2023-05-02T14:49:05.030Z,97167.81
2023-05-02T14:52:07.365Z,97168.66
2023-05-02T14:54:44.611Z,97175.13
2023-05-02T14:57:34.163Z,97170.25
2023-05-02T15:03:11.812Z,97170.66
2023-05-02T15:06:10.403Z,97166.00
2023-05-02T15:09:27.095Z,97166.38
2023-05-02T15:12:15.488Z,97166.16
2023-05-02T15:17:16.928Z,97162.31
2023-05-02T15:19:44.543Z,97162.31
2023-05-02T15:22:12.186Z,97166.78
2023-05-02T15:24:41.464Z,97172.84
2023-05-02T15:27:09.796Z,97176.50
2023-05-02T15:29:37.467Z,97162.75
2023-05-02T15:32:05.315Z,97165.97
2023-05-02T15:34:32.970Z,97165.56
2023-05-02T15:37:02.043Z,97161.91
2023-05-02T15:39:29.717Z,97170.03
2023-05-02T15:41:58.921Z,97171.84
2023-05-02T15:44:26.996Z,97162.31
2023-05-02T15:46:55.932Z,97169.22
2023-05-02T15:49:24.577Z,97165.16
2023-05-02T15:51:52.159Z,97168.00
2023-05-02T15:54:20.318Z,97161.53
2023-05-02T15:56:47.933Z,97165.19
2023-05-02T15:59:17.290Z,97178.34
2023-05-02T16:01:45.003Z,97168.44
2023-05-02T16:04:12.861Z,97169.63
2023-05-02T16:06:41.593Z,97175.31
2023-05-02T16:09:10.100Z,97171.66
2023-05-02T16:11:37.769Z,97172.69
2023-05-02T16:14:05.349Z,97180.59
2023-05-02T16:16:34.611Z,97183.81
2023-05-02T16:19:02.207Z,97181.78
2023-05-02T16:21:29.779Z,97184.63
2023-05-02T16:23:57.414Z,97187.44
2023-05-02T16:26:25.784Z,97189.69
2023-05-02T16:28:54.338Z,97200.00
2023-05-02T16:31:22.010Z,97195.94
2023-05-02T16:33:51.290Z,97204.88
2023-05-02T16:36:18.891Z,97194.75
2023-05-02T16:38:46.570Z,97198.38
2023-05-02T16:41:14.250Z,97204.28
2023-05-02T16:43:41.867Z,97216.81
2023-05-02T16:46:09.552Z,97215.81
2023-05-02T16:48:37.225Z,97210.34
2023-05-02T16:51:06.994Z,97215.00
2023-05-02T16:53:34.616Z,97213.16
2023-05-02T16:56:02.299Z,97214.00
2023-05-02T16:58:30.019Z,97223.50
2023-05-02T17:00:57.880Z,97225.94
2023-05-02T17:03:25.764Z,97223.50
2023-05-02T17:05:53.480Z,97224.91
2023-05-02T17:08:36.413Z,97219.47
2023-05-02T17:11:04.017Z,97218.66
2023-05-02T17:13:31.579Z,97219.25
2023-05-02T17:15:59.452Z,97214.56
2023-05-02T17:18:27.326Z,97228.56
2023-05-02T17:20:55.788Z,97227.53
2023-05-02T17:23:24.011Z,97222.69
2023-05-02T17:26:02.700Z,97227.53
2023-05-02T17:28:36.677Z,97227.31
2023-05-02T17:31:05.534Z,97223.47
2023-05-02T17:33:35.729Z,97231.72
2023-05-02T17:36:14.342Z,97236.75
2023-05-02T17:38:44.269Z,97233.91
2023-05-02T17:41:14.900Z,97233.69
2023-05-02T17:43:43.391Z,97240.34
2023-05-02T17:46:11.186Z,97243.56
2023-05-02T17:48:39.147Z,97247.81
2023-05-02T17:51:07.439Z,97249.78
2023-05-02T17:53:40.790Z,97253.19
2023-05-02T17:56:08.853Z,97262.47
2023-05-02T17:58:38.142Z,97261.63
2023-05-02T18:01:09.350Z,97266.63
2023-05-02T18:03:37.698Z,97267.44
2023-05-02T18:06:05.969Z,97270.03
2023-05-02T18:08:35.392Z,97266.53
2023-05-02T18:13:52.137Z,97272.72
2023-05-02T18:16:20.625Z,97275.91
2023-05-02T18:18:48.340Z,97268.00
2023-05-02T18:21:23.094Z,97275.38
2023-05-02T18:23:59.328Z,97278.28
2023-05-02T18:26:39.002Z,97279.25
2023-05-02T18:29:17.041Z,97281.00
2023-05-02T18:31:48.147Z,97286.38
2023-05-02T18:34:16.467Z,97282.69
2023-05-02T18:36:46.367Z,97287.50
2023-05-02T18:39:15.886Z,97289.06
2023-05-02T18:41:43.497Z,97295.88
2023-05-02T18:44:13.345Z,97305.13
2023-05-02T18:46:41.694Z,97310.09
2023-05-02T18:49:10.012Z,97310.28
2023-05-02T18:51:37.665Z,97314.44
2023-05-02T18:54:05.867Z,97321.06
2023-05-02T18:56:33.772Z,97321.78
2023-05-02T18:59:01.897Z,97325.97
2023-05-02T19:01:31.024Z,97324.53
2023-05-02T19:04:00.366Z,97330.94
2023-05-02T19:06:28.377Z,97335.75
2023-05-02T19:08:56.006Z,97333.47
2023-05-02T19:11:23.785Z,97338.09
2023-05-02T19:13:51.703Z,97337.44
2023-05-02T19:16:21.385Z,97335.84
2023-05-02T19:18:52.395Z,97334.03
2023-05-02T19:21:20.055Z,97344.72
2023-05-02T19:23:47.699Z,97346.50
2023-05-02T19:26:16.868Z,97346.31
2023-05-02T19:28:45.578Z,97353.19
2023-05-02T19:31:14.846Z,97352.91
2023-05-02T19:33:49.887Z,97356.09
2023-05-02T19:36:19.881Z,97355.81
2023-05-02T19:38:49.541Z,97360.59
2023-05-02T19:41:19.170Z,97362.75
2023-05-02T19:43:47.058Z,97367.53
2023-05-02T19:46:15.572Z,97367.06
2023-05-02T19:48:43.411Z,97372.84
2023-05-02T19:51:11.284Z,97380.44
2023-05-02T19:53:40.487Z,97382.13
2023-05-02T19:56:08.386Z,97380.25
2023-05-02T19:58:36.186Z,97383.56
2023-05-02T20:01:04.220Z,97376.25
2023-05-02T20:03:31.873Z,97380.19
2023-05-02T20:05:59.507Z,97380.09
2023-05-02T20:08:28.223Z,97384.84
2023-05-02T20:10:57.314Z,97388.66
2023-05-02T20:13:25.194Z,97391.78
2023-05-02T20:15:53.699Z,97391.97
2023-05-02T20:18:21.790Z,97393.28
2023-05-02T20:20:49.585Z,97395.00
2023-05-02T20:23:17.292Z,97397.50
2023-05-02T20:25:45.568Z,97392.78
2023-05-02T20:28:14.630Z,97401.81
2023-05-02T20:30:43.806Z,97403.94
2023-05-02T20:33:16.114Z,97403.94
2023-05-02T20:35:44.490Z,97409.16
2023-05-02T20:38:12.319Z,97409.81
2023-05-02T20:40:42.511Z,97416.66
2023-05-02T20:43:10.154Z,97413.25
2023-05-02T20:45:40.113Z,97419.47
2023-05-02T20:48:07.958Z,97410.78
2023-05-02T20:50:35.649Z,97406.56
2023-05-02T20:53:04.474Z,97415.22
2023-05-02T20:55:32.010Z,97412.78
2023-05-02T20:57:59.859Z,97421.59
2023-05-02T21:00:27.665Z,97421.97
2023-05-02T21:02:56.631Z,97426.56
2023-05-02T21:05:24.197Z,97422.66
2023-05-02T21:07:51.832Z,97428.22
2023-05-02T21:10:19.519Z,97418.09
2023-05-02T21:12:47.095Z,97413.88
2023-05-02T21:15:15.252Z,97417.63
2023-05-02T21:17:42.840Z,97418.13
2023-05-02T21:20:12.786Z,97421.09
2023-05-02T21:22:41.905Z,97415.06
2023-05-02T21:25:10.555Z,97415.88
2023-05-02T21:27:38.131Z,97416.84
2023-05-02T21:30:06.730Z,97424.41
2023-05-02T21:32:34.362Z,97416.59
2023-05-02T21:35:02.373Z,97419.88
2023-05-02T21:37:31.909Z,97419.69
2023-05-02T21:39:59.623Z,97422.50
2023-05-02T21:42:27.162Z,97422.81
2023-05-02T21:44:54.791Z,97424.66
2023-05-02T21:47:22.556Z,97423.53
2023-05-02T21:49:50.191Z,97426.16
2023-05-02T21:52:17.722Z,97425.22
2023-05-02T21:54:49.857Z,97429.47
2023-05-02T21:57:17.419Z,97427.19
2023-05-02T21:59:44.973Z,97423.78
2023-05-02T22:02:12.880Z,97427.38
2023-05-02T22:04:40.602Z,97426.56
2023-05-02T22:07:08.125Z,97422.00
2023-05-02T22:09:36.069Z,97428.53
2023-05-02T22:12:05.691Z,97424.78
2023-05-02T22:14:41.587Z,97426.25
2023-05-02T22:17:12.353Z,97423.47
2023-05-02T22:19:40.556Z,97428.53
2023-05-02T22:22:08.265Z,97428.22
2023-05-02T22:24:35.787Z,97430.47
2023-05-02T22:27:04.855Z,97422.97
2023-05-02T22:29:32.345Z,97433.41
2023-05-02T22:31:59.923Z,97432.59
2023-05-02T22:34:27.454Z,97431.94
2023-05-02T22:36:54.995Z,97438.31
2023-05-02T22:39:22.547Z,97429.81
2023-05-02T22:41:50.054Z,97430.63
2023-05-02T22:44:18.970Z,97425.41
2023-05-02T22:46:46.658Z,97432.28
2023-05-02T22:49:14.281Z,97434.69
2023-05-02T22:51:42.358Z,97428.66
2023-05-02T22:54:10.294Z,97436.34
2023-05-02T22:56:37.971Z,97433.09
2023-05-02T22:59:05.556Z,97438.44
2023-05-02T23:01:34.507Z,97439.44
2023-05-02T23:04:02.176Z,97441.22
2023-05-02T23:06:29.746Z,97440.56
2023-05-02T23:08:57.274Z,97442.19
2023-05-02T23:11:25.949Z,97440.56
2023-05-02T23:13:53.482Z,97446.09
2023-05-02T23:16:21.147Z,97448.72
2023-05-02T23:18:50.440Z,97447.38
2023-05-02T23:21:18.165Z,97444.13
2023-05-02T23:23:45.696Z,97443.47
2023-05-02T23:26:13.428Z,97443.78
2023-05-02T23:28:41.082Z,97441.34
2023-05-02T23:31:08.937Z,97446.56
2023-05-02T23:33:37.137Z,97443.09
2023-05-02T23:36:08.111Z,97449.47
2023-05-02T23:38:36.199Z,97444.41
2023-05-02T23:41:03.766Z,97446.34
2023-05-02T23:43:31.330Z,97451.88
2023-05-02T23:45:58.825Z,97449.59
2023-05-02T23:48:26.335Z,97448.31
2023-05-02T23:50:54.087Z,97452.59
2023-05-02T23:53:22.980Z,97453.91
2023-05-02T23:55:50.484Z,97447.72
2023-05-02T23:58:18.038Z,97448.69
